Terminal Aerodrome Forecast
Issued by NWS

Home | Current Version | Previous Version | Text Only | Print | Product List | Glossary On
Versions: 1 2 3 4 5 6 7 8 9 10 11 12 13 14 15 16
000
FTUS45 KRIW 232320
TAFCPR
TAF
KCPR 232320Z 2400/2424 03012KT P6SM -RA OVC008
     FM240400 03012G19KT 3SM -SNRA SCT003 BKN007
     FM241800 03013G23KT 5SM -RASN SCT007 OVC012=

USA.gov is the U.S. government's official web portal to all federal, state and local government web resources and services.